Time;durP1;ratioP1;P1;durP2;ratioP2;P2;SDS_P1;SDS_P2;PMS_P1;PMS_P2;Temp;Humidity;BMP_temperature;BMP_pressure;BME280_temperature;BME280_humidity;BME280_pressure;Samples;Min_cycle;Max_cycle;Signal;HPM_P1;HPM_P2
2021/12/30 00:01:18;;;;;;;5.23;3.60;;;;;;;6.66;87.61;94262.03;5074314;28;20158;-82
2021/12/30 00:03:46;;;;;;;7.40;4.00;;;;;;;6.72;87.54;94279.56;5074106;28;20165;-83
2021/12/30 00:06:12;;;;;;;6.03;3.63;;;;;;;6.69;87.31;94268.69;5073890;28;20167;-83
2021/12/30 00:08:38;;;;;;;6.10;3.47;;;;;;;6.48;87.27;94246.16;5064019;28;20233;-83
2021/12/30 00:11:06;;;;;;;7.97;3.83;;;;;;;6.44;87.32;94244.94;5062488;28;20179;-83
2021/12/30 00:13:31;;;;;;;5.13;3.40;;;;;;;6.42;87.26;94237.28;5062565;28;20253;-83
2021/12/30 00:15:57;;;;;;;4.57;3.27;;;;;;;6.27;87.23;94217.59;5062532;28;20266;-84
2021/12/30 00:18:23;;;;;;;6.53;3.73;;;;;;;6.38;87.63;94233.50;5053770;28;20565;-84
2021/12/30 00:20:48;;;;;;;5.23;3.03;;;;;;;6.70;87.22;94278.94;5052315;28;20182;-83
2021/12/30 00:23:14;;;;;;;4.17;2.83;;;;;;;6.33;86.75;94216.78;5053866;28;20151;-83
2021/12/30 00:25:41;;;;;;;6.37;3.17;;;;;;;6.66;87.05;94272.50;5053419;28;20205;-83
2021/12/30 00:28:10;;;;;;;7.47;3.67;;;;;;;6.64;86.99;94284.97;5053602;28;20159;-83
2021/12/30 00:30:36;;;;;;;5.30;3.00;;;;;;;6.67;87.25;94291.59;5053691;28;20592;-83
2021/12/30 00:33:01;;;;;;;5.87;2.93;;;;;;;6.46;86.98;94255.19;5051966;28;20199;-83
2021/12/30 00:35:29;;;;;;;5.07;3.07;;;;;;;6.71;86.89;94300.66;5053361;28;20151;-83
2021/12/30 00:37:54;;;;;;;5.27;2.80;;;;;;;6.73;87.03;94299.47;5053216;28;20258;-84
2021/12/30 00:40:20;;;;;;;6.90;3.33;;;;;;;6.27;86.57;94220.19;5053424;28;20246;-83
2021/12/30 00:42:46;;;;;;;5.57;3.10;;;;;;;6.40;86.42;94241.09;5051890;28;20178;-83
2021/12/30 00:45:12;;;;;;;4.27;3.13;;;;;;;6.74;86.58;94300.28;5053366;28;20190;-83
2021/12/30 00:47:37;;;;;;;3.90;2.50;;;;;;;6.57;86.26;94265.88;5053680;28;20163;-83
2021/12/30 00:50:03;;;;;;;4.77;2.60;;;;;;;6.75;86.14;94296.63;5051772;28;20232;-83
2021/12/30 00:52:28;;;;;;;6.20;3.00;;;;;;;6.43;86.67;94246.75;5051662;28;20589;-83
2021/12/30 00:54:54;;;;;;;5.33;3.30;;;;;;;6.71;86.21;94300.66;5052951;28;20186;-83
2021/12/30 00:57:19;;;;;;;3.50;2.43;;;;;;;6.49;86.72;94265.28;5051664;28;20254;-83
2021/12/30 00:59:45;;;;;;;4.87;2.80;;;;;;;6.59;86.70;94286.56;5052846;28;20179;-84
2021/12/30 01:02:11;;;;;;;4.87;2.73;;;;;;;6.61;86.31;94295.84;5051548;28;20647;-83
2021/12/30 01:04:36;;;;;;;3.87;2.93;;;;;;;6.43;86.33;94278.13;5051503;28;20716;-83
2021/12/30 01:07:02;;;;;;;4.63;3.53;;;;;;;6.42;86.33;94260.81;5052735;28;20566;-83
2021/12/30 01:09:27;;;;;;;13.97;7.73;;;;;;;6.75;86.25;94314.94;5055571;28;20302;-83
2021/12/30 01:11:55;;;;;;;10.20;5.90;;;;;;;6.78;86.20;94306.69;5061271;28;20191;-83
2021/12/30 01:14:24;;;;;;;3.97;3.10;;;;;;;6.72;85.82;94302.28;5062230;28;20637;-83
2021/12/30 01:16:57;;;;;;;5.17;3.10;;;;;;;6.21;85.87;94261.00;5063458;28;20759;-83
2021/12/30 01:19:42;;;;;;;4.47;2.67;;;;;;;6.32;86.75;94272.66;5053649;28;20220;-84
2021/12/30 01:22:12;;;;;;;3.43;2.70;;;;;;;6.34;86.94;94287.16;5052501;28;20541;-83
2021/12/30 01:24:38;;;;;;;4.30;3.10;;;;;;;6.61;86.25;94329.00;5052424;28;20221;-83
2021/12/30 01:27:04;;;;;;;4.37;3.47;;;;;;;6.47;86.50;94309.09;5052692;28;20171;-83
2021/12/30 01:29:31;;;;;;;3.30;2.23;;;;;;;6.48;87.07;94301.06;5052317;28;20182;-82
2021/12/30 01:31:57;;;;;;;3.67;2.50;;;;;;;6.13;86.96;94253.34;5050940;28;20202;-83
2021/12/30 01:34:23;;;;;;;5.23;3.17;;;;;;;6.63;86.91;94322.59;5051019;28;20201;-83
2021/12/30 01:36:49;;;;;;;3.17;2.50;;;;;;;6.61;86.78;94326.41;5052066;28;20209;-83
2021/12/30 01:39:17;;;;;;;4.43;2.63;;;;;;;6.29;86.78;94267.84;5052252;28;20166;-83
2021/12/30 01:41:44;;;;;;;4.10;2.63;;;;;;;6.64;86.24;94328.63;5050659;28;20178;-83
2021/12/30 01:44:09;;;;;;;3.27;2.63;;;;;;;6.35;86.09;94283.53;5052052;28;20186;-83
2021/12/30 01:46:40;;;;;;;4.93;3.53;;;;;;;6.50;86.35;94309.47;5050652;28;20171;-83
2021/12/30 01:49:06;;;;;;;4.73;3.10;;;;;;;6.66;86.52;94318.78;5052249;28;20175;-83
2021/12/30 01:51:32;;;;;;;5.40;3.30;;;;;;;6.53;86.70;94303.88;5051833;28;20190;-83
2021/12/30 01:53:59;;;;;;;8.97;3.47;;;;;;;6.22;86.35;94257.41;5052162;28;20167;-83
2021/12/30 01:56:25;;;;;;;6.20;3.20;;;;;;;6.47;86.05;94291.59;5051779;28;20250;-83
2021/12/30 01:58:50;;;;;;;6.37;3.40;;;;;;;6.71;86.17;94326.81;5052044;28;20246;-83
2021/12/30 02:01:16;;;;;;;5.73;3.40;;;;;;;6.47;86.02;94291.59;5056447;28;20229;-83
2021/12/30 02:03:41;;;;;;;5.83;3.17;;;;;;;6.68;85.82;94321.97;5062849;28;20189;-83
2021/12/30 02:06:07;;;;;;;6.20;3.70;;;;;;;6.62;86.01;94320.97;5062242;28;20790;-83
2021/12/30 02:08:32;;;;;;;3.37;2.60;;;;;;;6.35;86.24;94277.50;5062675;28;20242;-83
2021/12/30 02:10:57;;;;;;;5.50;3.07;;;;;;;6.45;85.76;94309.28;5071981;28;20162;-83
2021/12/30 02:13:23;;;;;;;4.57;2.70;;;;;;;6.43;86.24;94312.09;5071611;28;20285;-83
2021/12/30 02:15:49;;;;;;;5.37;3.00;;;;;;;6.59;86.91;94336.25;5072266;28;20169;-83
2021/12/30 02:18:15;;;;;;;4.70;3.17;;;;;;;6.29;86.76;94276.50;5070573;28;20193;-83
2021/12/30 02:20:50;;;;;;;7.00;3.23;;;;;;;6.57;86.47;94335.66;5070369;28;20170;-83
2021/12/30 02:23:37;;;;;;;5.63;3.23;;;;;;;6.22;86.84;94277.50;5071511;28;20715;-83
2021/12/30 02:26:06;;;;;;;7.03;3.90;;;;;;;6.42;87.01;94315.72;5071577;28;20161;-83
2021/12/30 02:28:35;;;;;;;7.03;3.97;;;;;;;6.52;86.75;94322.38;5072102;28;20163;-83
2021/12/30 02:31:03;;;;;;;9.43;3.90;;;;;;;6.50;86.77;94317.34;5071571;28;20211;-83
2021/12/30 02:33:29;;;;;;;5.27;3.23;;;;;;;6.63;86.73;94348.75;5071495;28;20186;-83
2021/12/30 02:35:56;;;;;;;6.60;4.43;;;;;;;6.39;86.76;94307.47;5070200;28;20171;-83
2021/12/30 02:38:23;;;;;;;7.27;3.30;;;;;;;6.66;87.46;94348.31;5071700;28;20159;-83
2021/12/30 02:40:53;;;;;;;6.70;3.73;;;;;;;6.68;86.91;94348.94;5071416;28;20236;-83
2021/12/30 02:43:25;;;;;;;5.77;3.20;;;;;;;6.66;87.02;94350.16;5071693;28;20201;-83
2021/12/30 02:45:51;;;;;;;6.00;3.70;;;;;;;6.57;86.95;94348.75;5071639;28;20210;-83
2021/12/30 02:48:20;;;;;;;4.47;3.00;;;;;;;6.60;87.23;94353.56;5072048;28;20168;-83
2021/12/30 02:50:47;;;;;;;5.13;4.03;;;;;;;6.59;87.31;94360.59;5070085;28;20209;-83
2021/12/30 02:53:14;;;;;;;8.10;3.63;;;;;;;6.60;87.36;94359.59;5070357;28;20583;-83
2021/12/30 02:55:41;;;;;;;5.23;3.30;;;;;;;6.66;86.85;94369.25;5071431;28;20232;-83
2021/12/30 02:58:07;;;;;;;3.50;2.60;;;;;;;6.46;86.37;94333.63;5071973;28;20151;-83
2021/12/30 03:00:32;;;;;;;4.33;3.17;;;;;;;6.66;86.81;94365.84;5071450;28;20158;-83
2021/12/30 03:02:58;;;;;;;3.83;3.27;;;;;;;6.66;86.63;94369.25;5071327;28;20625;-83
2021/12/30 03:05:25;;;;;;;4.17;2.70;;;;;;;6.62;86.62;94367.25;5071534;28;20178;-83
2021/12/30 03:07:52;;;;;;;5.03;3.10;;;;;;;6.62;86.65;94373.28;5071209;28;20163;-83
2021/12/30 03:10:21;;;;;;;7.20;3.17;;;;;;;6.51;87.33;94345.09;5071212;28;20226;-83
2021/12/30 03:12:53;;;;;;;8.37;3.97;;;;;;;6.33;86.65;94324.75;5071968;28;20272;-83
2021/12/30 03:15:19;;;;;;;5.23;3.57;;;;;;;6.68;87.09;94382.13;5071305;28;20643;-83
2021/12/30 03:17:45;;;;;;;6.43;3.37;;;;;;;6.40;86.82;94336.00;5071546;28;20704;-83
2021/12/30 03:20:11;;;;;;;5.97;3.87;;;;;;;6.66;86.36;94390.16;5073805;28;20174;-84
2021/12/30 03:22:41;;;;;;;7.80;3.77;;;;;;;6.69;86.56;94391.59;5074689;28;20170;-84
2021/12/30 03:25:09;;;;;;;5.67;3.40;;;;;;;6.35;86.52;94345.47;5075018;28;20166;-84
2021/12/30 03:27:35;;;;;;;6.83;4.00;;;;;;;6.55;87.15;94371.66;5074590;28;20174;-83
2021/12/30 03:30:03;;;;;;;9.20;4.27;;;;;;;6.57;86.98;94383.53;5075113;28;20174;-83
2021/12/30 03:32:28;;;;;;;11.23;4.80;;;;;;;6.52;86.96;94365.00;5074812;28;20190;-84
2021/12/30 03:34:53;;;;;;;7.93;4.70;;;;;;;6.09;86.59;94299.16;5064542;28;20193;-84
2021/12/30 03:37:19;;;;;;;7.63;5.00;;;;;;;6.60;86.92;94384.94;5056783;28;20244;-84
2021/12/30 03:39:47;;;;;;;6.83;4.90;;;;;;;6.15;86.12;94287.91;5063208;28;20171;-84
2021/12/30 03:42:12;;;;;;;6.37;4.73;;;;;;;6.46;86.19;94354.53;5070879;28;20159;-84
2021/12/30 03:44:38;;;;;;;5.53;4.13;;;;;;;6.68;86.69;94403.03;5074432;28;20186;-84
2021/12/30 03:47:05;;;;;;;6.87;4.50;;;;;;;6.63;87.04;94398.44;5074567;28;20166;-84
2021/12/30 03:49:31;;;;;;;9.00;4.63;;;;;;;6.67;86.66;94402.25;5073830;28;20155;-84
2021/12/30 03:51:56;;;;;;;5.83;4.17;;;;;;;6.43;86.66;94374.03;5060067;28;20763;-84
2021/12/30 03:54:22;;;;;;;5.20;4.00;;;;;;;6.23;86.91;94347.03;5052888;28;20629;-84
2021/12/30 03:56:47;;;;;;;7.17;5.30;;;;;;;6.26;87.06;94351.88;5052860;28;20202;-84
2021/12/30 03:59:13;;;;;;;9.57;5.73;;;;;;;6.41;87.13;94383.88;5054541;28;20250;-84
2021/12/30 04:01:40;;;;;;;10.50;5.47;;;;;;;6.19;87.32;94351.03;5052782;28;20652;-84
2021/12/30 04:04:05;;;;;;;8.90;5.43;;;;;;;6.52;87.70;94400.78;5053958;28;20167;-84
2021/12/30 04:06:31;;;;;;;6.97;4.53;;;;;;;6.46;87.05;94406.81;5052606;28;20606;-84
2021/12/30 04:08:57;;;;;;;6.97;4.90;;;;;;;6.69;86.82;94436.03;5053540;28;20734;-84
2021/12/30 04:11:30;;;;;;;7.73;4.70;;;;;;;6.36;86.66;94397.53;5086032;28;20218;-85
2021/12/30 04:13:55;;;;;;;7.57;5.50;;;;;;;6.16;87.27;94382.78;5054100;28;20242;-84
2021/12/30 04:16:21;;;;;;;6.93;4.57;;;;;;;6.33;87.51;94407.56;5054263;28;20194;-84
2021/12/30 04:18:49;;;;;;;6.93;4.33;;;;;;;6.24;87.54;94390.44;5053977;28;20232;-85
2021/12/30 04:21:17;;;;;;;8.37;4.70;;;;;;;6.24;87.19;94385.22;5053649;28;20257;-84
2021/12/30 04:23:43;;;;;;;8.10;5.20;;;;;;;6.69;86.98;94454.34;5052351;28;20571;-84
2021/12/30 04:26:09;;;;;;;8.43;5.40;;;;;;;6.37;87.41;94411.41;5053496;28;20568;-84
2021/12/30 04:28:40;;;;;;;12.57;6.27;;;;;;;6.45;87.52;94419.09;5053191;28;20169;-84
2021/12/30 04:31:07;;;;;;;9.70;5.00;;;;;;;6.65;86.83;94458.38;5052130;28;20553;-84
2021/12/30 04:33:39;;;;;;;8.87;5.17;;;;;;;6.72;86.98;94469.66;5051543;28;20275;-85
2021/12/30 04:36:04;;;;;;;10.47;6.13;;;;;;;6.48;87.03;94444.03;5053309;28;20905;-84
2021/12/30 04:38:35;;;;;;;12.23;7.07;;;;;;;6.32;86.91;94419.03;5053172;28;20186;-84
2021/12/30 04:41:05;;;;;;;9.53;5.60;;;;;;;6.31;87.10;94420.06;5053783;28;20613;-85
2021/12/30 04:43:30;;;;;;;8.23;4.97;;;;;;;6.54;86.84;94458.94;5053337;28;20248;-84
2021/12/30 04:45:59;;;;;;;6.43;4.37;;;;;;;6.57;86.96;94464.59;5054974;28;20711;-85
2021/12/30 04:48:29;;;;;;;5.80;3.47;;;;;;;6.66;86.99;94486.16;5064716;28;20632;-83
2021/12/30 04:50:55;;;;;;;3.73;2.57;;;;;;;6.44;86.23;94470.56;5062120;28;20618;-82
2021/12/30 04:53:23;;;;;;;5.00;3.20;;;;;;;6.56;86.18;94499.59;5060741;28;20272;-84
2021/12/30 04:55:49;;;;;;;3.40;2.90;;;;;;;6.43;86.02;94482.00;5072348;28;20197;-83
2021/12/30 04:58:15;;;;;;;4.80;3.50;;;;;;;6.54;86.24;94504.19;5073478;28;20162;-82
2021/12/30 05:00:41;;;;;;;6.10;3.90;;;;;;;6.54;86.28;94519.06;5066751;28;20182;-83
2021/12/30 05:03:12;;;;;;;9.77;4.93;;;;;;;6.49;86.06;94508.41;5058802;28;20182;-83
2021/12/30 05:05:42;;;;;;;7.00;4.07;;;;;;;6.38;86.02;94488.84;5056115;28;20190;-82
2021/12/30 05:08:07;;;;;;;7.20;4.80;;;;;;;6.20;86.01;94463.22;5065078;28;20185;-82
2021/12/30 05:10:34;;;;;;;7.17;4.70;;;;;;;6.40;86.50;94497.28;5064165;28;20221;-83
2021/12/30 05:13:00;;;;;;;5.70;4.20;;;;;;;6.60;85.96;94519.09;5059477;28;20269;-83
2021/12/30 05:15:26;;;;;;;3.90;3.03;;;;;;;6.43;85.12;94489.03;5054396;28;20212;-83
2021/12/30 05:17:51;;;;;;;4.83;3.90;;;;;;;6.42;85.09;94496.09;5063265;28;20210;-83
2021/12/30 05:20:17;;;;;;;5.07;3.47;;;;;;;6.26;85.29;94474.69;5055272;28;20178;-83
2021/12/30 05:22:43;;;;;;;6.00;4.27;;;;;;;6.26;85.30;94501.63;5062242;28;20264;-83
2021/12/30 05:25:10;;;;;;;6.83;4.17;;;;;;;6.37;86.11;94532.47;5063190;28;21084;-83
2021/12/30 05:27:38;;;;;;;7.57;4.70;;;;;;;6.22;85.88;94513.50;5072228;28;20170;-82
2021/12/30 05:30:08;;;;;;;6.90;4.20;;;;;;;6.32;86.53;94544.47;5063174;28;20551;-82
2021/12/30 05:32:34;;;;;;;8.47;5.10;;;;;;;6.17;86.07;94521.06;5051613;28;20210;-81
2021/12/30 05:35:03;;;;;;;7.90;4.57;;;;;;;6.30;86.05;94557.75;5052140;28;20162;-82
2021/12/30 05:37:31;;;;;;;7.43;4.60;;;;;;;5.98;85.72;94495.63;5050924;28;20178;-82
2021/12/30 05:39:57;;;;;;;7.87;4.93;;;;;;;6.38;86.23;94562.03;5051449;28;20229;-82
2021/12/30 05:42:23;;;;;;;6.90;4.33;;;;;;;6.38;86.17;94562.84;5051964;28;20167;-83
2021/12/30 05:44:51;;;;;;;6.73;4.33;;;;;;;6.31;85.89;94569.03;5052108;28;20187;-83
2021/12/30 05:47:16;;;;;;;7.47;4.53;;;;;;;5.90;85.94;94493.97;5051981;28;20660;-83
2021/12/30 05:49:46;;;;;;;9.73;5.03;;;;;;;6.44;85.76;94579.56;5051767;28;20167;-81
2021/12/30 05:52:13;;;;;;;7.13;4.67;;;;;;;6.48;86.20;94579.97;5051553;28;20191;-81
2021/12/30 05:54:42;;;;;;;6.80;4.80;;;;;;;6.40;85.85;94565.22;5051240;28;20522;-81
2021/12/30 05:57:09;;;;;;;8.87;4.80;;;;;;;6.23;85.40;94543.00;5051543;28;20162;-81
2021/12/30 05:59:34;;;;;;;6.03;4.03;;;;;;;6.36;85.27;94561.41;5055665;28;20678;-82
2021/12/30 06:02:00;;;;;;;7.97;4.20;;;;;;;6.18;85.78;94530.53;5063187;28;20170;-81
2021/12/30 06:04:28;;;;;;;10.73;4.87;;;;;;;6.56;85.72;94587.69;5062878;28;20236;-81
2021/12/30 06:06:55;;;;;;;6.87;4.87;;;;;;;6.46;85.08;94579.38;5056995;28;20243;-81
2021/12/30 06:09:23;;;;;;;7.73;4.60;;;;;;;6.46;84.82;94589.81;5051681;28;20253;-81
2021/12/30 06:11:49;;;;;;;7.10;4.27;;;;;;;6.29;84.59;94563.97;5051537;28;20190;-81
2021/12/30 06:14:17;;;;;;;10.53;5.73;;;;;;;6.37;84.87;94582.13;5051937;28;20156;-81
2021/12/30 06:16:42;;;;;;;9.67;5.63;;;;;;;6.55;84.80;94617.44;5051577;28;20561;-82
2021/12/30 06:19:09;;;;;;;11.63;6.87;;;;;;;6.42;84.62;94592.00;5050363;28;20163;-81
2021/12/30 06:21:39;;;;;;;13.00;6.97;;;;;;;6.47;85.19;94617.59;5050237;28;20220;-81
2021/12/30 06:24:07;;;;;;;14.17;7.73;;;;;;;6.24;85.57;94602.94;5051527;28;20715;-81
2021/12/30 06:26:35;;;;;;;13.17;8.53;;;;;;;6.20;85.21;94596.50;5050206;28;20171;-81
2021/12/30 06:29:00;;;;;;;11.07;6.83;;;;;;;6.41;85.51;94630.41;5051762;28;20213;-82
2021/12/30 06:31:26;;;;;;;3.60;2.57;;;;;;;6.34;83.08;94615.69;5051633;28;20649;-81
2021/12/30 06:33:53;;;;;;;2.17;1.97;;;;;;;6.35;81.35;94641.63;5060551;28;20183;-81
2021/12/30 06:36:21;;;;;;;2.37;1.60;;;;;;;6.54;80.03;94673.34;5056437;28;20185;-82
2021/12/30 06:38:47;;;;;;;2.70;2.00;;;;;;;6.28;79.13;94640.78;5061149;28;20175;-82
2021/12/30 06:41:16;;;;;;;2.33;1.63;;;;;;;6.48;78.62;94676.72;5059974;28;20264;-82
2021/12/30 06:43:41;;;;;;;3.20;1.60;;;;;;;6.29;78.64;94663.31;5050988;28;20316;-82
2021/12/30 06:46:09;;;;;;;2.90;1.50;;;;;;;6.17;79.28;94656.97;5059951;28;20258;-82
2021/12/30 06:48:37;;;;;;;2.47;1.57;;;;;;;6.47;79.16;94690.78;5068905;28;20228;-82
2021/12/30 06:51:04;;;;;;;2.87;1.53;;;;;;;6.41;78.39;94698.38;5052117;28;20178;-82
2021/12/30 06:53:31;;;;;;;1.47;1.10;;;;;;;6.25;78.47;94677.72;5067570;28;20205;-82
2021/12/30 06:55:57;;;;;;;1.77;1.67;;;;;;;6.15;76.54;94682.47;5075631;28;20175;-81
2021/12/30 06:58:23;;;;;;;2.47;1.60;;;;;;;6.28;76.64;94718.38;5075152;28;20163;-81
2021/12/30 07:00:49;;;;;;;2.07;1.40;;;;;;;6.25;77.42;94716.94;5074820;28;20174;-81
2021/12/30 07:03:15;;;;;;;1.73;1.60;;;;;;;6.23;77.73;94715.50;5074910;28;20375;-82
2021/12/30 07:05:40;;;;;;;1.33;1.10;;;;;;;5.93;76.45;94676.44;5073553;28;20718;-82
2021/12/30 07:08:06;;;;;;;2.43;1.67;;;;;;;6.30;76.83;94737.31;5074875;28;20246;-82
2021/12/30 07:10:31;;;;;;;1.97;1.63;;;;;;;5.95;77.57;94684.09;5072526;28;20691;-82
2021/12/30 07:12:59;;;;;;;1.77;1.57;;;;;;;5.87;77.41;94664.13;5068631;28;20187;-82
2021/12/30 07:15:25;;;;;;;1.50;1.40;;;;;;;6.43;77.21;94748.66;5065592;28;20597;-82
2021/12/30 07:17:50;;;;;;;1.40;1.30;;;;;;;6.26;76.76;94744.69;5063723;28;20177;-81
2021/12/30 07:20:16;;;;;;;1.37;1.27;;;;;;;6.36;77.29;94757.44;5061959;28;20228;-82
2021/12/30 07:22:41;;;;;;;1.77;1.10;;;;;;;5.93;77.52;94692.13;5054523;28;20175;-81
2021/12/30 07:25:08;;;;;;;2.07;1.50;;;;;;;6.05;77.29;94714.13;5054550;28;20155;-81
2021/12/30 07:27:34;;;;;;;2.90;1.63;;;;;;;6.43;77.10;94774.81;5054504;28;20171;-82
2021/12/30 07:30:05;;;;;;;2.30;1.50;;;;;;;6.45;76.87;94777.25;5054387;28;20659;-80
2021/12/30 07:32:30;;;;;;;1.70;1.60;;;;;;;6.40;77.21;94763.91;5061354;28;20749;-84
2021/12/30 07:34:55;;;;;;;2.87;1.87;;;;;;;6.39;75.56;94784.03;5064766;28;20174;-80
2021/12/30 07:37:21;;;;;;;2.77;1.77;;;;;;;6.34;74.73;94781.16;5057199;28;20165;-81
2021/12/30 07:39:48;;;;;;;3.47;1.57;;;;;;;6.33;74.34;94787.38;5064826;28;20524;-81
2021/12/30 07:42:14;;;;;;;2.10;1.80;;;;;;;6.26;75.20;94778.66;5063217;28;20242;-81
2021/12/30 07:44:40;;;;;;;2.57;1.67;;;;;;;6.26;74.59;94804.81;5063180;28;20679;-84
2021/12/30 07:47:08;;;;;;;3.03;1.50;;;;;;;6.19;75.07;94800.50;5056761;28;20174;-83
2021/12/30 07:49:37;;;;;;;3.83;1.67;;;;;;;5.94;74.50;94777.34;5064444;28;20178;-83
2021/12/30 07:52:07;;;;;;;2.60;1.80;;;;;;;6.09;75.29;94802.59;5065184;28;20567;-83
2021/12/30 07:54:33;;;;;;;2.90;1.90;;;;;;;6.10;75.95;94810.25;5074002;28;20605;-83
2021/12/30 07:56:59;;;;;;;3.93;1.90;;;;;;;6.13;76.62;94815.13;5072300;28;20189;-81
2021/12/30 07:59:25;;;;;;;3.13;1.90;;;;;;;5.96;75.30;94783.19;5074485;28;20253;-81
2021/12/30 08:01:53;;;;;;;1.77;1.60;;;;;;;5.93;74.75;94793.19;5074056;28;20238;-81
2021/12/30 08:04:22;;;;;;;2.10;1.73;;;;;;;5.96;75.41;94800.66;5073170;28;20196;-81
2021/12/30 08:06:47;;;;;;;2.70;2.00;;;;;;;6.15;75.62;94828.81;5074102;28;20158;-81
2021/12/30 08:09:13;;;;;;;6.93;2.50;;;;;;;6.21;75.62;94822.84;5056461;28;20221;-81
2021/12/30 08:11:38;;;;;;;3.13;2.60;;;;;;;6.17;74.72;94818.97;5052422;28;20215;-84
2021/12/30 08:14:04;;;;;;;5.20;2.57;;;;;;;5.95;74.95;94797.25;5053913;28;20254;-81
2021/12/30 08:16:30;;;;;;;3.57;2.63;;;;;;;6.12;75.10;94829.19;5053704;28;20167;-81
2021/12/30 08:18:58;;;;;;;6.57;2.40;;;;;;;5.96;75.04;94825.00;5060774;28;20170;-82
2021/12/30 08:21:24;;;;;;;3.33;2.53;;;;;;;5.93;75.71;94814.09;5053588;28;20181;-82
2021/12/30 08:23:53;;;;;;;3.40;2.40;;;;;;;5.63;74.13;94777.53;5062362;28;20171;-81
2021/12/30 08:26:22;;;;;;;2.30;1.80;;;;;;;6.03;73.61;94864.25;5062240;28;20175;-82
2021/12/30 08:28:48;;;;;;;3.43;2.10;;;;;;;5.70;73.98;94827.25;5053254;28;20633;-82
2021/12/30 08:31:14;;;;;;;2.07;1.87;;;;;;;5.94;74.49;94868.78;5062130;28;20176;-82
2021/12/30 08:33:40;;;;;;;3.80;2.33;;;;;;;5.71;74.69;94833.28;5061943;28;20206;-82
2021/12/30 08:36:05;;;;;;;6.53;2.40;;;;;;;5.64;75.53;94814.91;5062157;28;20159;-85
2021/12/30 08:38:31;;;;;;;2.07;1.73;;;;;;;6.03;75.05;94872.91;5072518;28;20174;-86
2021/12/30 08:40:57;;;;;;;2.03;1.73;;;;;;;5.86;73.63;94839.28;5068622;28;20166;-84
2021/12/30 08:43:22;;;;;;;3.17;1.80;;;;;;;5.92;73.99;94838.59;5058244;28;20179;-83
2021/12/30 08:45:49;;;;;;;2.50;1.90;;;;;;;6.15;74.13;94888.09;5060125;28;20194;-84
2021/12/30 08:48:15;;;;;;;4.00;2.10;;;;;;;5.86;74.53;94842.72;5063425;28;20183;-82
2021/12/30 08:50:41;;;;;;;2.43;1.80;;;;;;;6.17;74.53;94893.94;5068772;28;20213;-85
2021/12/30 08:53:08;;;;;;;4.07;2.73;;;;;;;5.98;74.99;94856.94;5054662;28;20714;-87
2021/12/30 08:55:35;;;;;;;5.73;2.80;;;;;;;6.22;74.04;94900.28;5062206;28;20242;-88
2021/12/30 08:58:02;;;;;;;4.17;2.13;;;;;;;6.26;74.59;94903.31;5036249;28;20174;-90
2021/12/30 09:00:30;;;;;;;2.90;2.23;;;;;;;6.17;74.33;94891.34;5063445;28;20236;-86
2021/12/30 09:03:00;;;;;;;4.53;2.77;;;;;;;5.99;74.33;94860.38;5060042;28;20255;-84
2021/12/30 09:05:26;;;;;;;2.93;1.97;;;;;;;6.35;74.03;94910.88;5058799;28;20360;-87
2021/12/30 09:07:52;;;;;;;2.67;2.17;;;;;;;6.18;74.71;94896.38;5062254;28;20185;-87
2021/12/30 09:10:20;;;;;;;6.03;3.63;;;;;;;5.84;73.89;94851.72;5062142;28;20313;-84
2021/12/30 09:12:47;;;;;;;79.67;37.43;;;;;;;6.05;75.96;94881.34;5061132;28;20688;-84
2021/12/30 09:15:15;;;;;;;15.50;8.90;;;;;;;6.11;73.68;94885.06;5057225;28;20175;-86
2021/12/30 09:17:43;;;;;;;5.60;3.40;;;;;;;6.08;74.24;94864.50;5051250;28;20163;-85
2021/12/30 09:20:10;;;;;;;2.50;2.10;;;;;;;6.22;74.26;94868.91;5052334;28;20207;-86
2021/12/30 09:22:36;;;;;;;2.90;2.40;;;;;;;6.56;73.45;94923.19;5052406;28;20151;-84
2021/12/30 09:25:05;;;;;;;2.73;2.00;;;;;;;6.21;72.33;94876.94;5052200;28;20253;-82
2021/12/30 09:27:41;;;;;;;5.87;2.67;;;;;;;6.06;72.22;94862.06;5052210;28;20155;-81
2021/12/30 09:30:10;;;;;;;3.07;2.23;;;;;;;6.15;73.31;94886.28;5052677;28;20167;-83
2021/12/30 09:32:36;;;;;;;6.93;2.93;;;;;;;5.94;73.19;94863.53;5052529;28;20240;-84
2021/12/30 09:35:02;;;;;;;3.73;2.23;;;;;;;6.32;73.37;94920.88;5052206;28;20167;-83
2021/12/30 09:37:28;;;;;;;3.00;1.97;;;;;;;6.11;73.46;94905.16;5051958;28;20605;-84
2021/12/30 09:39:55;;;;;;;4.10;2.50;;;;;;;6.27;73.18;94926.66;5070618;28;20248;-84
2021/12/30 09:42:20;;;;;;;4.23;2.93;;;;;;;6.28;73.32;94930.91;5071977;28;20170;-83
2021/12/30 09:44:46;;;;;;;3.83;2.20;;;;;;;6.33;73.30;94930.34;5070801;28;20182;-84
2021/12/30 09:47:12;;;;;;;4.73;2.87;;;;;;;6.38;72.58;94928.00;5071832;28;20186;-83
2021/12/30 09:49:37;;;;;;;4.17;2.73;;;;;;;6.04;72.35;94868.50;5071828;28;20170;-84
2021/12/30 09:52:04;;;;;;;4.00;2.23;;;;;;;6.44;72.37;94938.53;5070357;28;20714;-83
2021/12/30 09:54:29;;;;;;;4.47;2.73;;;;;;;6.43;71.98;94941.31;5065985;28;20172;-84
2021/12/30 09:56:55;;;;;;;3.23;2.40;;;;;;;6.14;72.12;94916.03;5091317;28;20182;-83
2021/12/30 09:59:23;;;;;;;4.73;2.60;;;;;;;6.18;71.96;94916.50;5062122;28;20200;-84
2021/12/30 10:01:49;;;;;;;3.77;2.40;;;;;;;6.33;71.87;94952.06;5062951;28;20171;-84
2021/12/30 10:04:16;;;;;;;2.83;2.07;;;;;;;5.89;71.92;94870.28;5071924;28;20186;-84
2021/12/30 10:06:44;;;;;;;4.43;2.50;;;;;;;6.05;72.42;94891.78;5069385;28;20227;-84
2021/12/30 10:09:12;;;;;;;5.97;2.47;;;;;;;6.32;72.70;94939.16;5049965;28;20680;-83
2021/12/30 10:11:50;;;;;;;3.97;2.50;;;;;;;6.32;72.81;94928.72;5051733;28;20167;-84
2021/12/30 10:14:29;;;;;;;3.97;2.20;;;;;;;6.56;71.57;94946.72;5054961;28;20655;-83
2021/12/30 10:17:13;;;;;;;2.77;2.17;;;;;;;6.54;71.39;94946.09;5068886;28;20167;-83
2021/12/30 10:19:38;;;;;;;3.47;2.30;;;;;;;6.50;72.61;94923.09;5066606;28;20182;-83
2021/12/30 10:22:13;;;;;;;11.23;2.67;;;;;;;6.58;72.19;94949.13;5066432;28;20196;-83
2021/12/30 10:24:40;;;;;;;4.37;2.20;;;;;;;6.63;71.72;94945.00;5068368;28;20184;-83
2021/12/30 10:27:06;;;;;;;5.67;2.50;;;;;;;6.42;71.75;94921.41;5070372;28;20269;-83
2021/12/30 10:29:42;;;;;;;4.33;2.60;;;;;;;6.70;71.53;94951.09;5071900;28;20209;-83
2021/12/30 10:32:21;;;;;;;6.43;3.37;;;;;;;6.76;71.20;94962.63;5062874;28;20198;-83
2021/12/30 10:35:07;;;;;;;4.07;2.53;;;;;;;6.75;70.56;94961.00;5053794;28;20174;-83
2021/12/30 10:37:33;;;;;;;3.60;2.30;;;;;;;6.69;71.48;94940.81;5058398;28;20256;-84
2021/12/30 10:39:59;;;;;;;2.33;1.90;;;;;;;6.75;71.30;94953.97;5073378;28;20187;-83
2021/12/30 10:42:27;;;;;;;1.43;1.33;;;;;;;6.85;70.28;94958.09;5062116;28;20175;-83
2021/12/30 10:45:11;;;;;;;2.40;1.70;;;;;;;6.80;69.59;94958.66;5053360;28;20187;-83
2021/12/30 10:47:54;;;;;;;5.03;2.27;;;;;;;6.65;70.76;94932.56;5056948;28;20175;-82
2021/12/30 10:50:24;;;;;;;5.13;2.00;;;;;;;6.79;70.41;94951.81;5065069;28;20183;-80
2021/12/30 10:52:56;;;;;;;2.13;1.57;;;;;;;6.81;69.68;94955.84;5065479;28;20248;-83
2021/12/30 10:55:23;;;;;;;1.93;1.73;;;;;;;6.78;69.24;94956.22;5064577;28;20179;-83
2021/12/30 10:57:49;;;;;;;2.27;1.73;;;;;;;6.46;69.70;94929.69;5073060;28;20567;-83
2021/12/30 11:00:33;;;;;;;3.43;2.00;;;;;;;6.59;70.56;94963.84;5072014;28;20193;-83
2021/12/30 11:03:18;;;;;;;5.70;2.10;;;;;;;6.64;70.11;94964.91;5071520;28;20181;-83
2021/12/30 11:06:18;;;;;;;2.03;1.80;;;;;;;6.73;69.92;94963.00;5060200;28;20179;-83
2021/12/30 11:08:46;;;;;;;3.60;2.53;;;;;;;6.54;70.04;94956.56;5049809;28;20222;-83
2021/12/30 11:11:26;;;;;;;2.53;1.90;;;;;;;6.67;69.79;94971.56;5049148;28;20758;-83
2021/12/30 11:14:03;;;;;;;2.63;2.23;;;;;;;6.72;69.74;94977.91;5050276;28;20179;-83
2021/12/30 11:16:29;;;;;;;3.27;2.13;;;;;;;6.77;69.34;94979.94;5049648;28;20187;-83
2021/12/30 11:18:56;;;;;;;3.40;1.93;;;;;;;6.35;69.42;94923.94;5051206;28;20186;-83
2021/12/30 11:21:39;;;;;;;1.97;1.77;;;;;;;6.63;69.71;94976.38;5051268;28;20225;-83
2021/12/30 11:24:05;;;;;;;1.90;1.70;;;;;;;6.87;69.58;95003.19;5056437;28;20190;-82
2021/12/30 11:26:32;;;;;;;3.83;2.83;;;;;;;6.74;68.74;94985.56;5072692;28;20214;-82
2021/12/30 11:28:57;;;;;;;2.50;1.77;;;;;;;6.80;69.54;94990.03;5061067;28;20572;-83
2021/12/30 11:31:23;;;;;;;2.53;2.00;;;;;;;6.72;69.82;94983.13;5052709;28;20179;-83
2021/12/30 11:33:49;;;;;;;3.33;1.90;;;;;;;6.84;68.92;94993.91;5051099;28;20203;-83
2021/12/30 11:36:16;;;;;;;5.83;2.00;;;;;;;6.82;68.72;94990.69;5058910;28;20276;-83
2021/12/30 11:38:42;;;;;;;3.50;1.90;;;;;;;6.87;68.55;94996.16;5070055;28;20568;-81
2021/12/30 11:41:15;;;;;;;2.70;2.07;;;;;;;6.63;68.37;94952.03;5072456;28;20181;-83
2021/12/30 11:43:43;;;;;;;2.43;1.80;;;;;;;6.88;69.71;94971.63;5072666;28;20162;-83